Terminal Aerodrome Forecast
Issued by NWS Central Illinois

Home | Current Version | Previous Version | Text Only | Print | Product List | Glossary On
Versions: 1 2 3 4 5 6 7 8 9 10 11 12 13 14 15 16 17 18 19 20 21 22
000
FTUS43 KILX 302327
TAFPIA
TAF
KPIA 302327Z 0100/0124 36005KT P6SM VCSH BKN025
     FM010400 01006KT 5SM BR OVC015
     FM010800 36005KT 3SM -DZ BR SCT003 OVC008
     FM011100 35003KT 1SM -DZ BR OVC003
     FM011700 35006KT P6SM VCSH SCT008 OVC015=

USA.gov is the U.S. government's official web portal to all federal, state and local government web resources and services.